Terminal Aerodrome Forecast
Issued by NWS

Home | Current Version | Previous Version | Text Only | Print | Product List | Glossary On
Versions: 1 2 3 4 5 6 7 8 9 10 11 12 13 14 15 16 17
000
FTUS41 KBTV 010524
TAFMSS
TAF
KMSS 010524Z 0106/0206 08004KT P6SM VCSH OVC090
      TEMPO 0106/0109 -SHRA BKN040
     FM010900 08005KT P6SM VCSH OVC090
     FM011400 06007KT P6SM BKN070
     FM020000 05006KT P6SM VCSH OVC050=

USA.gov is the U.S. government's official web portal to all federal, state and local government web resources and services.